createdAt,value
2023-01-09T00:00:38.148Z,97739.87
2023-01-09T00:03:26.343Z,97732.23
2023-01-09T00:05:58.047Z,97732.17
2023-01-09T00:08:29.708Z,97735.26
2023-01-09T00:11:01.603Z,97731.45
2023-01-09T00:13:33.412Z,97732.98
2023-01-09T00:16:06.986Z,97730.65
2023-01-09T00:18:37.891Z,97728.13
2023-01-09T00:21:12.058Z,97720.44
2023-01-09T00:23:43.882Z,97727.36
2023-01-09T00:26:18.969Z,97731.68
2023-01-09T00:28:54.236Z,97728.61
2023-01-09T00:31:26.259Z,97726.36
2023-01-09T00:34:03.947Z,97723.93
2023-01-09T00:36:35.831Z,97717.15
2023-01-09T00:39:07.901Z,97717.28
2023-01-09T00:41:43.640Z,97720.48
2023-01-09T00:44:19.976Z,97720.93
2023-01-09T00:46:56.163Z,97714.90
2023-01-09T00:49:30.543Z,97721.77
2023-01-09T00:52:03.517Z,97721.33
2023-01-09T00:54:35.553Z,97725.39
2023-01-09T00:57:07.796Z,97720.48
2023-01-09T00:59:39.626Z,97705.70
2023-01-09T01:02:12.189Z,97702.91
2023-01-09T01:05:01.577Z,97709.63
2023-01-09T01:07:39.463Z,97709.50
2023-01-09T01:10:16.353Z,97705.52
2023-01-09T01:12:49.398Z,97704.14
2023-01-09T01:15:22.082Z,97702.06
2023-01-09T01:17:53.853Z,97702.65
2023-01-09T01:20:25.871Z,97694.91
2023-01-09T01:22:57.654Z,97685.10
2023-01-09T01:25:29.531Z,97687.13
2023-01-09T01:28:01.244Z,97675.83
2023-01-09T01:30:33.444Z,97670.45
2023-01-09T01:33:07.236Z,97674.36
2023-01-09T01:35:39.517Z,97670.31
2023-01-09T01:38:11.313Z,97688.04
2023-01-09T01:40:43.150Z,97689.82
2023-01-09T01:43:15.325Z,97684.34
2023-01-09T01:45:47.146Z,97699.27
2023-01-09T01:48:22.669Z,97694.11
2023-01-09T01:50:59.809Z,97685.40
2023-01-09T01:53:35.597Z,97684.67
2023-01-09T01:56:11.275Z,97678.05
2023-01-09T01:58:47.127Z,97675.02
2023-01-09T02:01:19.907Z,97677.27
2023-01-09T02:03:54.474Z,97667.16
2023-01-09T02:06:26.473Z,97669.89
2023-01-09T02:08:59.000Z,97669.98
2023-01-09T02:11:30.728Z,97674.98
2023-01-09T02:14:03.583Z,97678.41
2023-01-09T02:16:52.055Z,97674.16
2023-01-09T02:19:58.674Z,97672.92
2023-01-09T02:22:43.715Z,97679.48
2023-01-09T02:25:38.192Z,97668.28
2023-01-09T02:28:44.936Z,97661.80
2023-01-09T02:31:23.000Z,97658.02
2023-01-09T02:34:03.467Z,97660.68
2023-01-09T02:36:43.115Z,97663.55
2023-01-09T02:39:24.957Z,97662.03
2023-01-09T02:42:03.999Z,97661.89
2023-01-09T02:44:37.109Z,97662.23
2023-01-09T02:47:24.189Z,97658.77
2023-01-09T02:50:00.646Z,97656.55
2023-01-09T02:52:56.971Z,97654.92
2023-01-09T02:55:44.247Z,97646.20
2023-01-09T02:58:27.111Z,97643.42
2023-01-09T03:01:09.748Z,97638.70
2023-01-09T03:03:49.053Z,97636.91
2023-01-09T03:06:28.723Z,97639.73
2023-01-09T03:09:08.053Z,97644.94
2023-01-09T03:11:45.182Z,97639.80
2023-01-09T03:14:19.497Z,97644.26
2023-01-09T03:16:56.722Z,97644.96
2023-01-09T03:19:31.958Z,97638.30
2023-01-09T03:22:04.957Z,97636.95
2023-01-09T03:24:38.772Z,97633.80
2023-01-09T03:27:11.586Z,97625.11
2023-01-09T03:29:43.600Z,97620.91
2023-01-09T03:32:15.475Z,97613.08
2023-01-09T03:34:47.296Z,97602.85
2023-01-09T03:37:19.015Z,97590.79
2023-01-09T03:39:50.804Z,97587.11
2023-01-09T03:42:22.614Z,97579.48
2023-01-09T03:44:54.346Z,97575.35
2023-01-09T03:47:26.169Z,97572.05
2023-01-09T03:49:58.101Z,97571.23
2023-01-09T03:52:29.848Z,97573.54
2023-01-09T03:55:01.487Z,97570.54
2023-01-09T03:57:33.344Z,97569.02
2023-01-09T04:00:05.765Z,97573.95
2023-01-09T04:02:37.620Z,97565.44
2023-01-09T04:05:11.041Z,97562.29
2023-01-09T04:07:42.947Z,97559.67
2023-01-09T04:10:15.383Z,97553.38
2023-01-09T04:12:47.339Z,97548.92
2023-01-09T04:15:19.040Z,97539.11
2023-01-09T04:17:51.255Z,97541.24
2023-01-09T04:20:23.111Z,97536.11
2023-01-09T04:22:54.921Z,97538.83
2023-01-09T04:25:26.830Z,97539.06
2023-01-09T04:27:59.081Z,97535.88
2023-01-09T04:30:30.971Z,97529.70
2023-01-09T04:33:02.818Z,97524.52
2023-01-09T04:35:34.553Z,97516.48
2023-01-09T04:38:06.289Z,97512.61
2023-01-09T04:40:38.170Z,97513.36
2023-01-09T04:43:09.845Z,97503.63
2023-01-09T04:45:41.954Z,97513.34
2023-01-09T04:48:13.859Z,97506.43
2023-01-09T04:50:46.051Z,97503.45
2023-01-09T04:53:17.711Z,97503.86
2023-01-09T04:55:49.786Z,97505.87
2023-01-09T04:58:21.519Z,97504.61
2023-01-09T05:00:54.213Z,97499.20
2023-01-09T05:03:26.088Z,97498.09
2023-01-09T05:05:57.783Z,97495.80
2023-01-09T05:08:29.500Z,97492.70
2023-01-09T05:11:01.316Z,97493.13
2023-01-09T05:13:33.214Z,97493.58
2023-01-09T05:16:05.202Z,97486.85
2023-01-09T05:18:37.132Z,97486.17
2023-01-09T05:21:10.225Z,97479.13
2023-01-09T05:23:42.135Z,97477.42
2023-01-09T05:26:13.997Z,97476.01
2023-01-09T05:28:45.860Z,97475.29
2023-01-09T05:31:17.699Z,97475.54
2023-01-09T05:33:50.051Z,97471.86
2023-01-09T05:36:21.924Z,97467.79
2023-01-09T05:38:53.708Z,97458.23
2023-01-09T05:41:26.329Z,97456.96
2023-01-09T05:43:58.113Z,97459.82
2023-01-09T05:46:29.899Z,97449.59
2023-01-09T05:49:01.733Z,97446.81
2023-01-09T05:51:33.593Z,97445.61
2023-01-09T05:54:07.397Z,97438.13
2023-01-09T05:56:39.194Z,97437.38
2023-01-09T05:59:11.033Z,97438.11
2023-01-09T06:01:43.012Z,97437.21
2023-01-09T06:04:14.785Z,97432.23
2023-01-09T06:06:46.609Z,97433.20
2023-01-09T06:09:18.307Z,97431.42
2023-01-09T06:11:50.249Z,97429.31
2023-01-09T06:14:22.489Z,97428.99
2023-01-09T06:16:54.207Z,97426.67
2023-01-09T06:19:26.162Z,97428.96
2023-01-09T06:21:58.164Z,97432.00
2023-01-09T06:24:30.229Z,97429.58
2023-01-09T06:27:02.197Z,97430.53
2023-01-09T06:29:33.893Z,97431.02
2023-01-09T06:32:06.220Z,97437.31
2023-01-09T06:34:38.090Z,97434.23
2023-01-09T06:37:12.076Z,97432.52
2023-01-09T06:39:43.813Z,97432.88
2023-01-09T06:42:15.820Z,97430.06
2023-01-09T06:44:47.646Z,97428.71
2023-01-09T06:47:19.777Z,97429.88
2023-01-09T06:49:51.706Z,97429.32
2023-01-09T06:52:23.396Z,97429.63
2023-01-09T06:54:55.078Z,97429.18
2023-01-09T06:57:27.595Z,97430.42
2023-01-09T06:59:59.485Z,97431.26
2023-01-09T07:02:31.436Z,97435.20
2023-01-09T07:05:08.467Z,97436.34
2023-01-09T07:07:40.236Z,97437.70
2023-01-09T07:10:14.320Z,97436.36
2023-01-09T07:12:46.055Z,97440.29
2023-01-09T07:15:17.811Z,97440.05
2023-01-09T07:17:49.928Z,97439.30
2023-01-09T07:20:22.041Z,97441.26
2023-01-09T07:22:54.213Z,97443.08
2023-01-09T07:25:26.065Z,97441.55
2023-01-09T07:27:57.811Z,97445.48
2023-01-09T07:30:29.898Z,97439.77
2023-01-09T07:33:03.887Z,97437.35
2023-01-09T07:35:36.323Z,97442.00
2023-01-09T07:38:08.007Z,97438.06
2023-01-09T07:40:39.675Z,97435.60
2023-01-09T07:43:11.549Z,97432.70
2023-01-09T07:45:43.600Z,97434.14
2023-01-09T07:48:15.510Z,97431.77
2023-01-09T07:50:47.470Z,97434.15
2023-01-09T07:53:19.280Z,97433.10
2023-01-09T07:55:51.332Z,97432.05
2023-01-09T07:58:23.339Z,97429.55
2023-01-09T08:00:55.461Z,97429.30
2023-01-09T08:03:27.200Z,97422.35
2023-01-09T08:05:59.062Z,97424.09
2023-01-09T08:08:30.794Z,97422.77
2023-01-09T08:11:02.777Z,97419.70
2023-01-09T08:13:34.559Z,97413.67
2023-01-09T08:16:07.129Z,97412.96
2023-01-09T08:18:38.924Z,97409.88
2023-01-09T08:21:11.387Z,97403.23
2023-01-09T08:23:45.554Z,97405.15
2023-01-09T08:26:17.333Z,97405.12
2023-01-09T08:28:49.427Z,97397.33
2023-01-09T08:31:21.284Z,97402.52
2023-01-09T08:33:53.312Z,97401.55
2023-01-09T08:36:25.134Z,97405.64
2023-01-09T08:38:57.188Z,97398.91
2023-01-09T08:41:46.553Z,97396.11
2023-01-09T08:44:35.660Z,97396.13
2023-01-09T08:47:08.925Z,97386.17
2023-01-09T08:49:41.711Z,97386.55
2023-01-09T08:52:13.823Z,97392.86
2023-01-09T08:54:45.779Z,97394.21
2023-01-09T08:57:17.524Z,97396.90
2023-01-09T08:59:49.497Z,97400.88
2023-01-09T09:02:21.400Z,97401.33
2023-01-09T09:04:54.585Z,97399.79
2023-01-09T09:07:28.720Z,97402.13
2023-01-09T09:10:00.537Z,97401.30
2023-01-09T09:12:32.469Z,97401.20
2023-01-09T09:15:16.371Z,97399.70
2023-01-09T09:17:46.925Z,97395.43
2023-01-09T09:20:19.089Z,97394.23
2023-01-09T09:22:50.938Z,97389.80
2023-01-09T09:25:23.778Z,97387.10
2023-01-09T09:27:56.380Z,97378.48
2023-01-09T09:30:28.113Z,97381.14
2023-01-09T09:32:59.872Z,97375.15
2023-01-09T09:35:32.503Z,97374.45
2023-01-09T09:38:06.258Z,97369.19
2023-01-09T09:41:30.760Z,97368.03
2023-01-09T09:44:39.506Z,97368.49
2023-01-09T09:47:21.204Z,97363.92
2023-01-09T09:50:04.720Z,97358.90
2023-01-09T09:52:46.504Z,97354.91
2023-01-09T09:55:22.405Z,97359.48
2023-01-09T09:57:56.171Z,97356.17
2023-01-09T10:00:29.113Z,97353.77
2023-01-09T10:03:06.219Z,97348.84
2023-01-09T10:05:41.948Z,97347.28
2023-01-09T10:08:25.709Z,97347.48
2023-01-09T10:10:57.868Z,97344.44
2023-01-09T10:14:02.868Z,97344.79
2023-01-09T10:16:48.895Z,97338.99
2023-01-09T10:19:36.027Z,97338.94
2023-01-09T10:22:17.933Z,97338.56
2023-01-09T10:25:07.075Z,97334.91
2023-01-09T10:27:55.422Z,97336.78
2023-01-09T10:30:35.136Z,97337.16
2023-01-09T10:33:19.376Z,97331.62
2023-01-09T10:36:09.026Z,97331.96
2023-01-09T10:38:45.230Z,97334.58
2023-01-09T10:41:23.663Z,97329.08
2023-01-09T10:44:00.804Z,97322.86
2023-01-09T10:46:40.413Z,97325.54
2023-01-09T10:49:17.324Z,97324.08
2023-01-09T10:51:52.510Z,97317.59
2023-01-09T10:54:25.672Z,97312.73
2023-01-09T10:57:01.591Z,97315.24
2023-01-09T10:59:33.296Z,97315.29
2023-01-09T11:02:05.188Z,97309.26
2023-01-09T11:04:40.698Z,97307.09
2023-01-09T11:07:19.844Z,97306.57
2023-01-09T11:10:03.246Z,97307.11
2023-01-09T11:12:36.338Z,97307.48
2023-01-09T11:15:29.126Z,97314.43
2023-01-09T11:18:25.708Z,97314.05
2023-01-09T11:20:57.484Z,97315.27
2023-01-09T11:23:32.482Z,97311.59
2023-01-09T11:26:05.744Z,97310.09
2023-01-09T11:28:37.675Z,97308.55
2023-01-09T11:31:09.437Z,97304.91
2023-01-09T11:33:48.302Z,97307.27
2023-01-09T11:36:25.903Z,97305.52
2023-01-09T11:38:59.349Z,97311.30
2023-01-09T11:41:35.588Z,97312.37
2023-01-09T11:44:15.953Z,97312.79
2023-01-09T11:46:47.775Z,97313.95
2023-01-09T11:49:27.050Z,97311.46
2023-01-09T11:52:20.939Z,97315.91
2023-01-09T11:54:56.842Z,97316.42
2023-01-09T11:57:29.042Z,97318.25
2023-01-09T12:00:04.469Z,97319.52
2023-01-09T12:02:57.362Z,97321.19
2023-01-09T12:05:38.896Z,97313.45
2023-01-09T12:08:27.452Z,97307.64
2023-01-09T12:11:14.584Z,97309.40
2023-01-09T12:13:57.831Z,97308.52
2023-01-09T12:16:37.961Z,97304.95
2023-01-09T12:19:26.053Z,97304.59
2023-01-09T12:22:04.668Z,97306.45
2023-01-09T12:24:50.231Z,97300.17
2023-01-09T12:27:33.196Z,97298.92
2023-01-09T12:30:27.361Z,97290.20
2023-01-09T12:33:13.013Z,97282.81
2023-01-09T12:35:53.723Z,97278.81
2023-01-09T12:38:49.421Z,97279.73
2023-01-09T12:42:06.285Z,97277.38
2023-01-09T12:44:51.250Z,97282.98
2023-01-09T12:47:46.379Z,97278.35
2023-01-09T12:50:55.014Z,97278.94
2023-01-09T12:53:29.882Z,97277.10
2023-01-09T12:56:06.006Z,97274.91
2023-01-09T12:58:48.199Z,97273.01
2023-01-09T13:01:25.681Z,97271.42
2023-01-09T13:04:05.058Z,97267.04
2023-01-09T13:06:41.413Z,97268.89
2023-01-09T13:09:25.892Z,97275.54
2023-01-09T13:12:04.402Z,97277.82
2023-01-09T13:14:47.037Z,97279.73
2023-01-09T13:17:23.361Z,97281.58
2023-01-09T13:19:55.201Z,97285.41
2023-01-09T13:22:30.528Z,97294.11
2023-01-09T13:25:17.885Z,97302.23
2023-01-09T13:27:57.328Z,97311.26
2023-01-09T13:30:47.468Z,97312.26
2023-01-09T13:33:25.129Z,97315.05
2023-01-09T13:35:59.026Z,97317.11
2023-01-09T13:38:33.866Z,97320.29
2023-01-09T13:41:30.379Z,97324.95
2023-01-09T13:44:04.111Z,97324.42
2023-01-09T13:46:36.973Z,97327.16
2023-01-09T13:49:32.722Z,97333.34
2023-01-09T13:52:06.822Z,97337.56
2023-01-09T13:55:25.414Z,97331.11
2023-01-09T13:58:23.750Z,97338.58
2023-01-09T14:00:59.396Z,97343.54
2023-01-09T14:03:34.185Z,97340.48
2023-01-09T14:06:28.421Z,97341.75
2023-01-09T14:09:23.053Z,97344.89
2023-01-09T14:12:06.813Z,97347.55
2023-01-09T14:14:43.636Z,97346.20
2023-01-09T14:17:24.524Z,97351.29
2023-01-09T14:20:01.247Z,97359.81
2023-01-09T14:22:45.482Z,97363.79
2023-01-09T14:25:27.453Z,97367.83
2023-01-09T14:28:20.364Z,97372.31
2023-01-09T14:31:29.050Z,97381.14
2023-01-09T14:34:32.494Z,97383.90
2023-01-09T14:37:06.030Z,97386.25
2023-01-09T14:39:41.526Z,97387.61
2023-01-09T14:42:22.659Z,97388.23
2023-01-09T14:45:00.763Z,97384.73
2023-01-09T14:47:40.526Z,97394.41
2023-01-09T14:50:23.353Z,97403.98
2023-01-09T14:53:00.480Z,97405.09
2023-01-09T14:55:35.686Z,97402.30
2023-01-09T14:58:23.561Z,97396.09
2023-01-09T15:01:04.178Z,97402.45
2023-01-09T15:03:41.606Z,97409.77
2023-01-09T15:06:19.656Z,97411.16
2023-01-09T15:08:55.990Z,97416.42
2023-01-09T15:11:28.775Z,97420.73
2023-01-09T15:14:04.330Z,97421.66
2023-01-09T15:16:38.006Z,97428.02
2023-01-09T15:19:11.236Z,97432.26
2023-01-09T15:21:57.145Z,97431.45
2023-01-09T15:24:30.416Z,97433.45
2023-01-09T15:27:04.688Z,97431.09
2023-01-09T15:29:36.534Z,97435.83
2023-01-09T15:32:13.306Z,97443.45
2023-01-09T15:34:46.808Z,97447.70
2023-01-09T15:37:29.693Z,97449.79
2023-01-09T15:40:04.379Z,97458.70
2023-01-09T15:42:59.075Z,97463.81
2023-01-09T15:45:35.331Z,97469.23
2023-01-09T15:48:24.956Z,97475.95
2023-01-09T15:51:02.409Z,97473.58
2023-01-09T15:53:34.564Z,97482.84
2023-01-09T15:56:16.685Z,97480.89
2023-01-09T15:58:49.944Z,97480.08
2023-01-09T16:01:35.542Z,97478.12
2023-01-09T16:04:12.451Z,97485.73
2023-01-09T16:06:48.827Z,97490.23
2023-01-09T16:09:25.940Z,97493.41
2023-01-09T16:12:01.116Z,97493.41
2023-01-09T16:14:38.559Z,97489.11
2023-01-09T16:17:16.639Z,97487.75
2023-01-09T16:19:53.229Z,97489.70
2023-01-09T16:22:27.357Z,97494.04
2023-01-09T16:24:58.489Z,97495.98
2023-01-09T16:27:33.666Z,97503.04
2023-01-09T16:30:28.360Z,97502.17
2023-01-09T16:33:02.267Z,97502.84
2023-01-09T16:35:34.129Z,97504.49
2023-01-09T16:38:06.475Z,97512.52
2023-01-09T16:40:38.546Z,97517.79
2023-01-09T16:43:15.660Z,97524.04
2023-01-09T16:45:47.562Z,97524.93
2023-01-09T16:48:22.423Z,97530.00
2023-01-09T16:50:54.328Z,97522.85
2023-01-09T16:53:27.265Z,97527.66
2023-01-09T16:55:59.757Z,97526.00
2023-01-09T16:58:36.366Z,97533.64
2023-01-09T17:01:09.932Z,97533.80
2023-01-09T17:03:43.980Z,97534.14
2023-01-09T17:06:20.942Z,97535.07
2023-01-09T17:08:52.905Z,97533.48
2023-01-09T17:11:30.153Z,97532.27
2023-01-09T17:14:02.554Z,97538.64
2023-01-09T17:16:38.420Z,97545.98
2023-01-09T17:19:18.079Z,97550.58
2023-01-09T17:21:50.073Z,97552.10
2023-01-09T17:24:39.664Z,97553.95
2023-01-09T17:27:30.348Z,97564.42
2023-01-09T17:30:05.581Z,97579.11
2023-01-09T17:32:45.785Z,97585.16
2023-01-09T17:35:17.970Z,97589.00
2023-01-09T17:37:49.825Z,97592.30
2023-01-09T17:40:24.926Z,97591.24
2023-01-09T17:42:57.531Z,97591.45
2023-01-09T17:45:30.366Z,97595.84
2023-01-09T17:48:02.365Z,97595.79
2023-01-09T17:50:36.328Z,97601.86
2023-01-09T17:53:08.144Z,97613.54
2023-01-09T17:55:40.630Z,97612.17
2023-01-09T17:58:24.902Z,97614.36
2023-01-09T18:00:57.090Z,97614.32
2023-01-09T18:03:33.425Z,97624.71
2023-01-09T18:06:05.995Z,97625.55
2023-01-09T18:08:37.818Z,97628.30
2023-01-09T18:11:13.893Z,97623.51
2023-01-09T18:13:46.218Z,97620.27
2023-01-09T18:16:21.119Z,97620.79
2023-01-09T18:18:53.814Z,97620.42
2023-01-09T18:21:28.122Z,97617.58
2023-01-09T18:24:01.428Z,97618.27
2023-01-09T18:26:33.267Z,97618.83
2023-01-09T18:29:05.276Z,97621.64
2023-01-09T18:31:38.024Z,97623.61
2023-01-09T18:34:10.375Z,97619.75
2023-01-09T18:36:42.227Z,97615.45
2023-01-09T18:39:14.614Z,97617.91
2023-01-09T18:41:46.579Z,97622.90
2023-01-09T18:44:21.934Z,97631.90
2023-01-09T18:46:54.527Z,97637.73
2023-01-09T18:49:26.342Z,97641.73
2023-01-09T18:51:58.064Z,97642.22
2023-01-09T18:54:29.716Z,97642.70
2023-01-09T18:57:01.540Z,97645.47
2023-01-09T18:59:33.510Z,97648.54
2023-01-09T19:02:06.248Z,97650.09
2023-01-09T19:04:38.015Z,97651.51
2023-01-09T19:07:09.747Z,97650.58
2023-01-09T19:09:42.227Z,97658.19
2023-01-09T19:12:14.572Z,97660.77
2023-01-09T19:14:47.076Z,97660.80
2023-01-09T19:17:18.912Z,97654.85
2023-01-09T19:19:50.643Z,97650.15
2023-01-09T19:22:22.540Z,97653.63
2023-01-09T19:24:54.304Z,97657.21
2023-01-09T19:27:26.188Z,97659.20
2023-01-09T19:29:58.023Z,97662.40
2023-01-09T19:32:29.779Z,97672.31
2023-01-09T19:35:01.543Z,97670.08
2023-01-09T19:37:35.032Z,97670.45
2023-01-09T19:40:08.201Z,97676.75
2023-01-09T19:42:39.893Z,97672.81
2023-01-09T19:45:12.996Z,97678.89
2023-01-09T19:47:45.679Z,97678.97
2023-01-09T19:50:19.070Z,97684.70
2023-01-09T19:52:51.735Z,97680.36
2023-01-09T19:55:24.028Z,97677.09
2023-01-09T19:57:55.715Z,97674.38
2023-01-09T20:00:27.544Z,97674.52
2023-01-09T20:02:59.453Z,97678.57
2023-01-09T20:05:31.375Z,97682.17
2023-01-09T20:08:06.434Z,97681.74
2023-01-09T20:10:39.822Z,97684.29
2023-01-09T20:13:12.391Z,97688.22
2023-01-09T20:15:44.661Z,97696.94
2023-01-09T20:18:17.060Z,97700.08
2023-01-09T20:20:53.382Z,97702.13
2023-01-09T20:23:27.721Z,97704.19
2023-01-09T20:26:00.103Z,97709.90
2023-01-09T20:28:32.210Z,97711.23
2023-01-09T20:31:05.672Z,97706.47
2023-01-09T20:33:37.383Z,97703.23
2023-01-09T20:36:11.116Z,97707.33
2023-01-09T20:38:42.491Z,97704.98
2023-01-09T20:41:22.727Z,97702.86
2023-01-09T20:43:56.894Z,97704.15
2023-01-09T20:46:36.705Z,97698.45
2023-01-09T20:49:11.250Z,97701.27
2023-01-09T20:51:47.023Z,97700.15
2023-01-09T20:54:21.164Z,97705.60
2023-01-09T20:56:53.665Z,97707.77
2023-01-09T20:59:25.453Z,97716.70
2023-01-09T21:01:57.251Z,97715.23
2023-01-09T21:04:31.454Z,97719.23
2023-01-09T21:07:03.094Z,97714.74
2023-01-09T21:09:34.983Z,97717.41
2023-01-09T21:12:24.796Z,97716.25
2023-01-09T21:14:57.310Z,97716.48
2023-01-09T21:17:29.522Z,97720.27
2023-01-09T21:20:01.563Z,97723.02
2023-01-09T21:22:35.335Z,97730.13
2023-01-09T21:25:06.138Z,97736.95
2023-01-09T21:27:42.170Z,97738.05
2023-01-09T21:30:15.082Z,97744.27
2023-01-09T21:32:46.865Z,97735.62
2023-01-09T21:35:18.837Z,97737.19
2023-01-09T21:37:50.494Z,97739.83
2023-01-09T21:40:22.976Z,97742.36
2023-01-09T21:43:12.512Z,97743.69
2023-01-09T21:46:13.101Z,97747.94
2023-01-09T21:48:44.794Z,97757.27
2023-01-09T21:51:16.659Z,97761.27
2023-01-09T21:53:48.991Z,97765.34
2023-01-09T21:56:21.823Z,97760.52
2023-01-09T21:58:53.550Z,97769.05
2023-01-09T22:01:25.312Z,97774.25
2023-01-09T22:03:58.236Z,97775.97
2023-01-09T22:06:30.552Z,97780.89
2023-01-09T22:09:03.371Z,97786.05
2023-01-09T22:11:35.286Z,97788.77
2023-01-09T22:14:07.366Z,97790.06
2023-01-09T22:16:39.128Z,97787.91
2023-01-09T22:19:11.271Z,97792.10
2023-01-09T22:21:43.075Z,97791.52
2023-01-09T22:24:18.547Z,97790.00
2023-01-09T22:26:50.778Z,97792.39
2023-01-09T22:29:23.096Z,97795.50
2023-01-09T22:31:54.914Z,97800.73
2023-01-09T22:34:26.637Z,97798.81
2023-01-09T22:36:58.339Z,97801.32
2023-01-09T22:39:30.237Z,97804.06
2023-01-09T22:42:02.532Z,97804.83
2023-01-09T22:44:34.481Z,97803.46
2023-01-09T22:47:07.119Z,97809.40
2023-01-09T22:49:52.341Z,97809.66
2023-01-09T22:52:25.035Z,97810.38
2023-01-09T22:54:56.964Z,97813.52
2023-01-09T22:57:28.724Z,97812.44
2023-01-09T23:00:00.601Z,97809.79
2023-01-09T23:02:32.494Z,97811.90
2023-01-09T23:05:04.594Z,97812.35
2023-01-09T23:07:37.342Z,97814.42
2023-01-09T23:10:11.682Z,97813.66
2023-01-09T23:12:47.719Z,97813.73
2023-01-09T23:15:19.641Z,97816.63
2023-01-09T23:17:51.386Z,97817.86
2023-01-09T23:20:23.408Z,97818.98
2023-01-09T23:22:55.159Z,97817.94
2023-01-09T23:25:27.072Z,97820.48
2023-01-09T23:27:58.867Z,97821.12
2023-01-09T23:30:30.631Z,97820.09
2023-01-09T23:33:02.330Z,97821.34
2023-01-09T23:35:34.108Z,97816.33
2023-01-09T23:38:05.994Z,97821.92
2023-01-09T23:40:41.318Z,97823.32
2023-01-09T23:43:15.412Z,97816.29
2023-01-09T23:45:50.336Z,97824.38
2023-01-09T23:48:22.483Z,97820.83
2023-01-09T23:50:55.816Z,97824.14
2023-01-09T23:53:27.650Z,97820.04
2023-01-09T23:56:01.304Z,97814.88
2023-01-09T23:58:31.582Z,97824.46
